Time;durP1;ratioP1;P1;durP2;ratioP2;P2;SDS_P1;SDS_P2;PMS_P1;PMS_P2;Temp;Humidity;BMP_temperature;BMP_pressure;BME280_temperature;BME280_humidity;BME280_pressure;Samples;Min_cycle;Max_cycle;Signal;HPM_P1;HPM_P2
2023/06/13 00:01:30;;;;;;;3.07;2.87;;;14.50;99.90;;;;;;5072165;28;20162;-68
2023/06/13 00:03:57;;;;;;;3.40;2.60;;;14.60;99.90;;;;;;5072946;28;20499;-69
2023/06/13 00:06:22;;;;;;;3.40;2.97;;;14.60;99.90;;;;;;5071076;28;20541;-69
2023/06/13 00:08:48;;;;;;;3.07;2.87;;;14.50;99.90;;;;;;5072942;28;20460;-68
2023/06/13 00:11:14;;;;;;;5.63;2.77;;;14.40;99.90;;;;;;5071445;28;20177;-68
2023/06/13 00:13:41;;;;;;;3.20;2.30;;;14.40;99.90;;;;;;5072902;28;20440;-68
2023/06/13 00:16:08;;;;;;;2.93;2.63;;;14.30;99.90;;;;;;5072053;28;20544;-68
2023/06/13 00:18:37;;;;;;;5.33;3.10;;;14.20;99.90;;;;;;5072791;28;20426;-68
2023/06/13 00:21:03;;;;;;;4.17;2.70;;;14.20;99.90;;;;;;5072127;28;20883;-68
2023/06/13 00:23:29;;;;;;;3.20;2.70;;;14.20;99.90;;;;;;5071886;28;20962;-68
2023/06/13 00:25:55;;;;;;;6.50;3.07;;;14.20;99.90;;;;;;5072782;28;20400;-70
2023/06/13 00:28:21;;;;;;;3.23;3.00;;;14.20;99.90;;;;;;5072878;28;20166;-68
2023/06/13 00:30:47;;;;;;;2.70;2.50;;;14.00;99.90;;;;;;5069903;28;21124;-69
2023/06/13 00:33:16;;;;;;;3.63;2.80;;;13.90;99.90;;;;;;5070548;28;20377;-69
2023/06/13 00:35:43;;;;;;;4.77;3.60;;;13.70;99.90;;;;;;5071549;28;20174;-68
2023/06/13 00:38:09;;;;;;;4.17;2.60;;;13.60;99.90;;;;;;5074638;28;20501;-68
2023/06/13 00:40:35;;;;;;;7.13;3.00;;;13.60;99.90;;;;;;5075565;28;20375;-69
2023/06/13 00:43:01;;;;;;;4.07;2.80;;;13.50;99.90;;;;;;5076495;28;20209;-68
2023/06/13 00:45:28;;;;;;;3.43;3.13;;;13.50;99.90;;;;;;5075522;28;20499;-68
2023/06/13 00:47:57;;;;;;;4.90;3.00;;;13.50;99.90;;;;;;5076043;28;20172;-69
2023/06/13 00:50:26;;;;;;;3.10;2.90;;;13.60;99.90;;;;;;5075449;28;20443;-68
2023/06/13 00:52:57;;;;;;;2.80;2.60;;;13.60;99.90;;;;;;5075292;28;20463;-69
2023/06/13 00:55:25;;;;;;;6.50;3.50;;;13.50;99.90;;;;;;5076280;28;20415;-68
2023/06/13 00:57:56;;;;;;;3.27;2.97;;;13.50;99.90;;;;;;5076210;28;20452;-68
2023/06/13 01:00:26;;;;;;;2.77;2.57;;;13.30;99.90;;;;;;5075364;28;20432;-68
2023/06/13 01:02:57;;;;;;;3.37;3.17;;;13.20;99.90;;;;;;5074774;28;21005;-69
2023/06/13 01:05:31;;;;;;;4.10;3.70;;;13.20;99.90;;;;;;5075470;28;20738;-69
2023/06/13 01:07:59;;;;;;;4.00;3.07;;;13.20;99.90;;;;;;5075992;28;20911;-69
2023/06/13 01:10:27;;;;;;;3.30;3.10;;;13.20;99.90;;;;;;5075322;28;20448;-68
2023/06/13 01:13:18;;;;;;;3.40;3.10;;;13.30;99.90;;;;;;5074951;28;20546;-68
2023/06/13 01:16:19;;;;;;;4.00;3.60;;;13.30;99.90;;;;;;5076006;28;20400;-68
2023/06/13 01:18:49;;;;;;;3.23;2.93;;;13.30;99.90;;;;;;5075744;28;20452;-69
2023/06/13 01:21:17;;;;;;;3.07;2.70;;;13.30;99.90;;;;;;5074501;28;20404;-68
2023/06/13 01:23:58;;;;;;;2.80;2.60;;;13.20;99.90;;;;;;5058755;28;20452;-68
2023/06/13 01:26:59;;;;;;;2.90;2.60;;;13.20;99.90;;;;;;5055818;28;20393;-69
2023/06/13 01:29:27;;;;;;;3.80;3.47;;;13.10;99.90;;;;;;5055748;28;20737;-68
2023/06/13 01:31:56;;;;;;;3.20;2.97;;;13.10;99.90;;;;;;5054237;28;20911;-71
2023/06/13 01:34:24;;;;;;;3.23;3.00;;;13.10;99.90;;;;;;5072720;28;20443;-69
2023/06/13 01:36:50;;;;;;;4.83;3.20;;;13.00;99.90;;;;;;5075503;28;20454;-69
2023/06/13 01:39:16;;;;;;;3.50;2.90;;;13.00;99.90;;;;;;5074886;28;20372;-69
2023/06/13 01:41:42;;;;;;;6.70;3.90;;;13.10;99.90;;;;;;5074743;28;20848;-68
2023/06/13 01:44:16;;;;;;;4.80;2.77;;;13.00;99.90;;;;;;5074389;28;20472;-68
2023/06/13 01:46:53;;;;;;;8.13;2.77;;;12.90;99.90;;;;;;5075319;28;20162;-68
2023/06/13 01:49:28;;;;;;;2.87;2.67;;;13.00;99.90;;;;;;5074130;28;20404;-69
2023/06/13 01:52:13;;;;;;;5.80;3.37;;;13.00;99.90;;;;;;5074477;28;20462;-70
2023/06/13 01:54:45;;;;;;;3.57;3.20;;;13.00;99.90;;;;;;5053435;28;20964;-68
2023/06/13 01:57:16;;;;;;;3.53;3.23;;;13.10;99.90;;;;;;5053509;28;20818;-69
2023/06/13 01:59:43;;;;;;;3.37;3.17;;;13.10;99.90;;;;;;5055156;28;20405;-68
2023/06/13 02:02:11;;;;;;;3.77;3.30;;;13.10;99.90;;;;;;5067009;28;20428;-68
2023/06/13 02:04:41;;;;;;;3.03;2.83;;;13.00;99.90;;;;;;5075053;28;20424;-70
2023/06/13 02:07:08;;;;;;;7.10;2.40;;;13.00;99.90;;;;;;5075092;28;20411;-68
2023/06/13 02:09:34;;;;;;;3.70;3.10;;;12.90;99.90;;;;;;5074977;28;20386;-68
2023/06/13 02:12:00;;;;;;;3.17;2.90;;;12.90;99.90;;;;;;5072939;28;20407;-68
2023/06/13 02:14:25;;;;;;;4.57;3.17;;;12.80;99.90;;;;;;5074657;28;20429;-68
2023/06/13 02:16:51;;;;;;;2.70;2.50;;;12.80;99.90;;;;;;5073297;28;20209;-68
2023/06/13 02:19:18;;;;;;;2.90;2.70;;;12.70;99.90;;;;;;5074760;28;20243;-69
2023/06/13 02:21:47;;;;;;;3.20;2.90;;;12.60;99.90;;;;;;5073104;28;20432;-68
2023/06/13 02:24:14;;;;;;;3.50;3.30;;;12.60;99.90;;;;;;5074620;28;20907;-67
2023/06/13 02:26:41;;;;;;;4.77;3.27;;;12.50;99.90;;;;;;5074583;28;20387;-68
2023/06/13 02:29:07;;;;;;;4.60;3.30;;;12.40;99.90;;;;;;5073775;28;20762;-68
2023/06/13 02:31:38;;;;;;;2.90;2.70;;;12.30;99.90;;;;;;5073242;28;20383;-69
2023/06/13 02:34:04;;;;;;;3.60;3.30;;;12.20;99.90;;;;;;5074187;28;20456;-68
2023/06/13 02:36:30;;;;;;;3.20;2.87;;;12.10;99.90;;;;;;5074485;28;20444;-68
2023/06/13 02:38:56;;;;;;;3.60;3.30;;;12.10;99.90;;;;;;5074389;28;20379;-69
2023/06/13 02:41:21;;;;;;;3.33;3.00;;;12.10;99.90;;;;;;5072435;28;20635;-69
2023/06/13 02:43:47;;;;;;;4.50;3.50;;;12.00;99.90;;;;;;5074145;28;20268;-68
2023/06/13 02:46:13;;;;;;;3.90;3.43;;;12.00;99.90;;;;;;5072940;28;20521;-69
2023/06/13 02:48:38;;;;;;;4.77;2.90;;;12.00;99.90;;;;;;5074023;28;20167;-69
2023/06/13 02:51:07;;;;;;;3.30;3.10;;;11.80;99.90;;;;;;5072216;28;20209;-68
2023/06/13 02:53:33;;;;;;;3.60;3.30;;;11.70;99.90;;;;;;5073942;28;20384;-68
2023/06/13 02:55:59;;;;;;;11.07;2.83;;;11.60;99.90;;;;;;5073868;28;20394;-68
2023/06/13 02:58:25;;;;;;;3.50;3.20;;;11.50;99.90;;;;;;5074118;28;20844;-68
2023/06/13 03:00:51;;;;;;;4.30;3.23;;;11.50;99.90;;;;;;5070037;28;20278;-69
2023/06/13 03:03:18;;;;;;;3.40;2.90;;;11.30;99.90;;;;;;5073847;28;20183;-70
2023/06/13 03:05:47;;;;;;;3.40;3.10;;;11.20;99.90;;;;;;5073584;28;20450;-69
2023/06/13 03:08:18;;;;;;;3.30;3.00;;;11.00;99.90;;;;;;5073557;28;20375;-70
2023/06/13 03:10:48;;;;;;;3.27;3.07;;;11.00;99.90;;;;;;5071996;28;20840;-68
2023/06/13 03:13:15;;;;;;;4.33;3.60;;;11.00;99.90;;;;;;5073662;28;20797;-69
2023/06/13 03:15:43;;;;;;;3.50;3.00;;;11.00;99.90;;;;;;5073721;28;20422;-69
2023/06/13 03:18:09;;;;;;;3.70;2.90;;;11.00;99.90;;;;;;5073427;28;20452;-69
2023/06/13 03:20:37;;;;;;;3.47;2.83;;;11.10;99.90;;;;;;5071866;28;20411;-69
2023/06/13 03:23:03;;;;;;;4.03;3.33;;;11.10;99.90;;;;;;5073647;28;20481;-69
2023/06/13 03:25:29;;;;;;;3.73;3.40;;;11.20;99.90;;;;;;5073014;28;20811;-68
2023/06/13 03:27:55;;;;;;;4.57;3.60;;;11.20;99.90;;;;;;5073431;28;20383;-69
2023/06/13 03:30:21;;;;;;;3.70;3.23;;;11.20;99.90;;;;;;5071768;28;20789;-68
2023/06/13 03:32:47;;;;;;;2.97;2.67;;;11.20;99.90;;;;;;5073346;28;20166;-68
2023/06/13 03:35:12;;;;;;;6.80;3.10;;;11.20;99.90;;;;;;5073535;28;20723;-70
2023/06/13 03:37:38;;;;;;;3.43;3.13;;;11.20;99.90;;;;;;5073317;28;20721;-68
2023/06/13 03:40:05;;;;;;;4.43;3.33;;;11.20;99.90;;;;;;5071446;28;20197;-74
2023/06/13 03:42:31;;;;;;;3.77;3.47;;;11.20;99.90;;;;;;5072780;28;20193;-69
2023/06/13 03:44:56;;;;;;;6.33;3.33;;;11.30;99.90;;;;;;5073173;28;20525;-68
2023/06/13 03:47:22;;;;;;;3.77;3.50;;;11.10;99.90;;;;;;5073236;28;20170;-68
2023/06/13 03:49:48;;;;;;;4.30;3.73;;;11.10;99.90;;;;;;5072298;28;20181;-71
2023/06/13 03:52:13;;;;;;;5.77;3.57;;;11.00;99.90;;;;;;5072318;28;20208;-68
2023/06/13 03:54:39;;;;;;;3.77;2.93;;;11.10;99.90;;;;;;5073041;28;20189;-69
2023/06/13 03:57:06;;;;;;;3.40;3.07;;;11.30;99.90;;;;;;5073143;28;20284;-68
2023/06/13 03:59:33;;;;;;;3.87;3.00;;;11.40;99.90;;;;;;5070285;28;20437;-68
2023/06/13 04:01:59;;;;;;;3.30;3.10;;;11.50;99.90;;;;;;5071103;28;20417;-69
2023/06/13 04:04:27;;;;;;;4.93;3.23;;;11.60;99.90;;;;;;5072907;28;20399;-68
2023/06/13 04:06:53;;;;;;;3.73;3.43;;;11.70;99.90;;;;;;5072975;28;20174;-68
2023/06/13 04:09:19;;;;;;;5.80;3.60;;;11.80;99.90;;;;;;5071858;28;20397;-69
2023/06/13 04:11:44;;;;;;;4.53;3.60;;;11.80;99.90;;;;;;5070945;28;20536;-68
2023/06/13 04:14:10;;;;;;;3.90;3.37;;;11.90;99.90;;;;;;5072685;28;20281;-68
2023/06/13 04:16:36;;;;;;;4.10;3.70;;;12.00;1.00;;;;;;5072732;28;20273;-70
2023/06/13 04:19:01;;;;;;;6.20;4.00;;;12.10;1.00;;;;;;5071345;28;20193;-68
2023/06/13 04:21:28;;;;;;;3.73;3.20;;;12.20;1.00;;;;;;5070810;28;20185;-68
2023/06/13 04:23:54;;;;;;;3.33;3.03;;;12.30;1.00;;;;;;5071026;28;20206;-69
2023/06/13 04:26:20;;;;;;;6.07;3.07;;;12.40;1.00;;;;;;5072865;28;20400;-69
2023/06/13 04:28:47;;;;;;;4.93;3.37;;;12.50;1.00;;;;;;5072724;28;20407;-68
2023/06/13 04:31:14;;;;;;;4.50;4.10;;;12.50;1.00;;;;;;5070855;28;20244;-69
2023/06/13 04:33:41;;;;;;;3.17;2.93;;;12.60;1.00;;;;;;5072749;28;20395;-69
2023/06/13 04:36:08;;;;;;;4.23;3.47;;;12.70;1.00;;;;;;5072582;28;20396;-69
2023/06/13 04:38:37;;;;;;;3.80;3.50;;;12.70;1.00;;;;;;5071950;28;20403;-69
2023/06/13 04:41:03;;;;;;;5.37;3.20;;;12.70;1.00;;;;;;5070040;28;20489;-68
2023/06/13 04:43:29;;;;;;;8.13;3.47;;;12.80;1.00;;;;;;5071632;28;20472;-69
2023/06/13 04:46:03;;;;;;;3.77;3.43;;;12.80;1.00;;;;;;5072630;28;20376;-69
2023/06/13 04:48:30;;;;;;;4.03;3.50;;;12.90;1.00;;;;;;5072615;28;20557;-68
2023/06/13 04:50:58;;;;;;;5.60;3.13;;;13.00;1.00;;;;;;5069941;28;20505;-68
2023/06/13 04:53:26;;;;;;;3.60;3.40;;;13.10;1.00;;;;;;5072462;28;20511;-69
2023/06/13 04:55:52;;;;;;;4.80;3.67;;;13.20;1.00;;;;;;5072675;28;20760;-69
2023/06/13 04:58:18;;;;;;;3.70;2.97;;;13.30;1.00;;;;;;5071819;28;20444;-68
2023/06/13 05:00:48;;;;;;;5.80;3.87;;;13.40;1.00;;;;;;5070234;28;20923;-69
2023/06/13 05:03:18;;;;;;;3.80;3.27;;;13.50;1.00;;;;;;5072439;28;20424;-69
2023/06/13 05:05:44;;;;;;;5.40;2.90;;;13.60;1.00;;;;;;5072527;28;20375;-68
2023/06/13 05:08:13;;;;;;;6.27;3.50;;;13.60;1.00;;;;;;5071287;28;20459;-68
2023/06/13 05:10:43;;;;;;;3.57;3.27;;;13.70;1.00;;;;;;5070540;28;20432;-71
2023/06/13 05:13:08;;;;;;;4.60;3.87;;;13.80;1.00;;;;;;5072408;28;20450;-68
2023/06/13 05:15:34;;;;;;;6.23;3.23;;;13.90;1.00;;;;;;5071819;28;20424;-68
2023/06/13 05:18:00;;;;;;;5.43;3.90;;;14.00;1.00;;;;;;5071171;28;20202;-69
2023/06/13 05:20:26;;;;;;;3.93;3.47;;;14.00;1.00;;;;;;5070736;28;20921;-68
2023/06/13 05:22:53;;;;;;;6.50;3.73;;;14.10;1.00;;;;;;5072180;28;20257;-69
2023/06/13 05:25:20;;;;;;;11.83;3.37;;;14.20;1.00;;;;;;5074420;28;20163;-69
2023/06/13 05:27:46;;;;;;;5.77;3.57;;;14.20;1.00;;;;;;5075907;28;20408;-68
2023/06/13 05:30:12;;;;;;;4.10;3.67;;;14.30;1.00;;;;;;5073154;28;20428;-68
2023/06/13 05:32:38;;;;;;;3.00;2.63;;;14.40;1.00;;;;;;5075032;28;20424;-69
2023/06/13 05:35:04;;;;;;;3.30;3.00;;;14.50;1.00;;;;;;5075605;28;20167;-68
2023/06/13 05:37:30;;;;;;;3.50;2.70;;;14.60;1.00;;;;;;5075604;28;20305;-69
2023/06/13 05:39:56;;;;;;;3.87;3.53;;;14.60;1.00;;;;;;5073344;28;20428;-69
2023/06/13 05:42:22;;;;;;;3.37;2.73;;;14.70;1.00;;;;;;5074974;28;20450;-68
2023/06/13 05:44:48;;;;;;;3.57;3.10;;;14.80;1.00;;;;;;5074176;28;20513;-67
2023/06/13 05:47:14;;;;;;;5.57;3.47;;;14.80;1.00;;;;;;5075202;28;20413;-69
2023/06/13 05:49:39;;;;;;;6.83;3.13;;;14.90;1.00;;;;;;5074805;28;20186;-67
2023/06/13 05:52:06;;;;;;;3.30;3.00;;;15.00;1.00;;;;;;5071081;28;20257;-67
2023/06/13 05:54:32;;;;;;;3.20;2.90;;;15.00;1.00;;;;;;5071541;28;20197;-66
2023/06/13 05:57:00;;;;;;;3.93;3.40;;;15.00;1.00;;;;;;5075125;28;20493;-67
2023/06/13 05:59:26;;;;;;;3.63;3.30;;;15.10;1.00;;;;;;5075085;28;20443;-67
2023/06/13 06:01:52;;;;;;;5.70;3.33;;;15.20;1.00;;;;;;5074347;28;20436;-67
2023/06/13 06:04:18;;;;;;;2.83;2.63;;;15.20;1.00;;;;;;5071935;28;20463;-67
2023/06/13 06:06:44;;;;;;;2.90;2.70;;;15.20;1.00;;;;;;5073218;28;20277;-67
2023/06/13 06:09:10;;;;;;;4.03;2.80;;;15.30;1.00;;;;;;5074723;28;20166;-67
2023/06/13 06:11:36;;;;;;;6.77;3.27;;;15.30;1.00;;;;;;5073777;28;20412;-66
2023/06/13 06:14:02;;;;;;;8.23;3.93;;;15.30;1.00;;;;;;5066332;28;20872;-67
2023/06/13 06:16:29;;;;;;;6.57;4.43;;;15.40;1.00;;;;;;5053638;28;20992;-67
2023/06/13 06:18:55;;;;;;;8.70;3.10;;;15.50;1.00;;;;;;5070529;28;20499;-68
2023/06/13 06:21:20;;;;;;;6.10;3.17;;;15.50;1.00;;;;;;5053836;28;20405;-67
2023/06/13 06:23:46;;;;;;;6.00;2.93;;;15.50;1.00;;;;;;5073545;28;20634;-67
2023/06/13 06:26:12;;;;;;;7.10;3.23;;;15.60;1.00;;;;;;5070371;28;20178;-71
2023/06/13 06:28:39;;;;;;;4.07;2.93;;;15.70;1.00;;;;;;5065280;28;20658;-70
2023/06/13 06:31:07;;;;;;;7.20;3.63;;;15.90;1.00;;;;;;5072960;28;20178;-69
2023/06/13 06:33:33;;;;;;;4.63;3.60;;;15.90;1.00;;;;;;5074301;28;20432;-70
2023/06/13 06:35:59;;;;;;;3.90;2.90;;;16.00;1.00;;;;;;5074010;28;20419;-69
2023/06/13 06:38:25;;;;;;;3.37;3.07;;;16.10;1.00;;;;;;5073647;28;20683;-68
2023/06/13 06:40:51;;;;;;;9.47;3.00;;;16.10;1.00;;;;;;5071932;28;20465;-69
2023/06/13 06:43:16;;;;;;;5.30;3.20;;;16.10;1.00;;;;;;5074079;28;20555;-70
2023/06/13 06:45:42;;;;;;;3.50;2.60;;;16.30;1.00;;;;;;5073309;28;20178;-69
2023/06/13 06:48:08;;;;;;;4.50;3.47;;;16.30;1.00;;;;;;5073678;28;20594;-69
2023/06/13 06:50:33;;;;;;;8.37;3.93;;;16.30;99.90;;;;;;5072746;28;20245;-73
2023/06/13 06:52:59;;;;;;;3.77;3.00;;;16.40;1.00;;;;;;5074072;28;20190;-68
2023/06/13 06:55:25;;;;;;;4.70;3.53;;;16.40;99.90;;;;;;5073990;28;20496;-69
2023/06/13 06:57:53;;;;;;;4.10;3.43;;;16.50;99.90;;;;;;5072680;28;20209;-70
2023/06/13 07:00:21;;;;;;;7.03;4.20;;;16.60;99.90;;;;;;5073148;28;20162;-69
2023/06/13 07:02:47;;;;;;;3.30;3.10;;;16.70;99.90;;;;;;5055602;28;20468;-70
2023/06/13 07:05:15;;;;;;;4.17;3.17;;;16.70;99.90;;;;;;5053480;28;20845;-71
2023/06/13 07:07:42;;;;;;;4.87;3.83;;;16.80;99.90;;;;;;5053896;28;20167;-70
2023/06/13 07:10:08;;;;;;;5.20;3.40;;;16.70;99.90;;;;;;5052849;28;20372;-70
2023/06/13 07:12:34;;;;;;;3.70;2.70;;;16.70;99.90;;;;;;5069320;28;20436;-71
2023/06/13 07:15:00;;;;;;;5.90;2.80;;;16.80;99.90;;;;;;5073842;28;20489;-68
2023/06/13 07:17:26;;;;;;;5.00;3.37;;;17.00;99.90;;;;;;5073638;28;20451;-68
2023/06/13 07:19:52;;;;;;;5.33;3.10;;;17.00;99.90;;;;;;5072634;28;20416;-69
2023/06/13 07:22:17;;;;;;;5.20;3.40;;;17.00;99.90;;;;;;5072289;28;20167;-69
2023/06/13 07:24:43;;;;;;;3.97;3.17;;;17.00;99.90;;;;;;5073437;28;20268;-69
2023/06/13 07:27:10;;;;;;;3.83;3.17;;;17.20;99.90;;;;;;5072354;28;20206;-69
2023/06/13 07:29:36;;;;;;;3.23;2.70;;;17.30;99.90;;;;;;5072720;28;20531;-70
2023/06/13 07:32:02;;;;;;;4.03;3.27;;;17.50;99.90;;;;;;5072491;28;20405;-70
2023/06/13 07:34:28;;;;;;;6.37;3.17;;;17.60;99.90;;;;;;5073463;28;20190;-69
2023/06/13 07:36:54;;;;;;;9.53;3.10;;;17.70;99.90;;;;;;5073039;28;20440;-70
2023/06/13 07:39:20;;;;;;;6.20;3.00;;;17.80;99.90;;;;;;5072864;28;20408;-70
2023/06/13 07:41:48;;;;;;;3.27;2.97;;;17.70;99.90;;;;;;5071606;28;20170;-70
2023/06/13 07:44:14;;;;;;;4.00;3.47;;;17.80;99.90;;;;;;5073017;28;21140;-69
2023/06/13 07:46:40;;;;;;;6.60;3.37;;;17.90;99.90;;;;;;5072740;28;20439;-69
2023/06/13 07:49:06;;;;;;;3.07;2.60;;;17.90;99.90;;;;;;5073165;28;20162;-69
2023/06/13 07:51:32;;;;;;;6.70;3.60;;;18.00;99.90;;;;;;5072332;28;20249;-69
2023/06/13 07:53:58;;;;;;;6.80;3.87;;;18.10;99.90;;;;;;5071564;28;20732;-69
2023/06/13 07:56:23;;;;;;;3.60;2.90;;;18.20;99.90;;;;;;5072438;28;20428;-68
2023/06/13 07:58:49;;;;;;;4.50;3.50;;;18.20;99.90;;;;;;5071859;28;20222;-69
2023/06/13 08:01:15;;;;;;;3.47;3.17;;;18.30;99.90;;;;;;5072202;28;20201;-68
2023/06/13 08:03:42;;;;;;;4.43;4.03;;;18.30;99.90;;;;;;5072026;28;20310;-68
2023/06/13 08:06:08;;;;;;;7.10;3.30;;;18.30;99.90;;;;;;5072013;28;20421;-71
2023/06/13 08:08:34;;;;;;;5.07;3.40;;;18.30;99.90;;;;;;5071195;28;20447;-70
2023/06/13 08:10:59;;;;;;;8.23;3.40;;;18.40;99.90;;;;;;5070935;28;20170;-69
2023/06/13 08:13:25;;;;;;;3.20;2.90;;;18.60;99.90;;;;;;5072885;28;20186;-68
2023/06/13 08:15:51;;;;;;;3.10;2.80;;;18.70;99.90;;;;;;5072498;28;20169;-71
2023/06/13 08:18:16;;;;;;;8.43;4.10;;;18.80;99.90;;;;;;5072819;28;20727;-70
2023/06/13 08:20:42;;;;;;;9.43;2.97;;;19.00;99.90;;;;;;5060821;28;20175;-70
2023/06/13 08:23:08;;;;;;;4.17;3.77;;;19.00;99.90;;;;;;5051193;28;20269;-70
2023/06/13 08:25:33;;;;;;;10.20;3.50;;;19.10;99.90;;;;;;5052780;28;20171;-69
2023/06/13 08:28:00;;;;;;;3.67;3.37;;;19.20;99.90;;;;;;5053823;28;20174;-70
2023/06/13 08:30:26;;;;;;;4.90;2.70;;;19.20;99.90;;;;;;5071877;28;20162;-70
2023/06/13 08:32:52;;;;;;;9.77;3.80;;;19.30;99.90;;;;;;5072124;28;20421;-69
2023/06/13 08:35:19;;;;;;;5.27;3.50;;;19.40;99.90;;;;;;5072760;28;20431;-71
2023/06/13 08:37:45;;;;;;;7.43;3.17;;;19.60;99.90;;;;;;5070501;28;20194;-70
2023/06/13 08:40:12;;;;;;;7.37;3.60;;;19.80;99.90;;;;;;5071822;28;20397;-69
2023/06/13 08:42:39;;;;;;;4.70;3.20;;;19.80;99.90;;;;;;5072485;28;20603;-71
2023/06/13 08:45:09;;;;;;;5.07;3.23;;;19.80;99.90;;;;;;5072714;28;20428;-69
2023/06/13 08:47:35;;;;;;;5.57;3.30;;;19.80;99.90;;;;;;5071133;28;20811;-70
2023/06/13 08:50:01;;;;;;;5.10;3.27;;;19.80;99.90;;;;;;5069172;28;20421;-69
2023/06/13 08:52:34;;;;;;;3.50;3.20;;;20.00;99.90;;;;;;5071951;28;20432;-69
2023/06/13 08:55:00;;;;;;;3.40;3.10;;;20.10;99.90;;;;;;5072596;28;20400;-69
2023/06/13 08:57:29;;;;;;;4.33;2.87;;;20.20;99.90;;;;;;5072427;28;20489;-68
2023/06/13 08:59:56;;;;;;;5.00;3.87;;;20.40;99.90;;;;;;5075476;28;20405;-69
2023/06/13 09:02:26;;;;;;;5.80;3.70;;;20.40;99.90;;;;;;5075662;28;20431;-69
2023/06/13 09:04:52;;;;;;;5.10;3.20;;;20.50;99.90;;;;;;5074824;28;20447;-69
2023/06/13 09:07:21;;;;;;;6.10;3.43;;;20.70;99.90;;;;;;5076017;28;20392;-70
2023/06/13 09:09:48;;;;;;;4.17;3.03;;;20.80;99.90;;;;;;5076204;28;20392;-73
2023/06/13 09:12:16;;;;;;;4.83;3.43;;;20.80;99.90;;;;;;5075388;28;20408;-68
2023/06/13 09:14:42;;;;;;;5.53;3.27;;;20.80;99.90;;;;;;5074934;28;20774;-69
2023/06/13 09:17:08;;;;;;;4.10;2.77;;;20.80;99.90;;;;;;5073900;28;20448;-69
2023/06/13 09:19:35;;;;;;;5.43;3.27;;;21.10;99.90;;;;;;5075971;28;21112;-70
2023/06/13 09:22:01;;;;;;;3.13;2.50;;;21.40;99.90;;;;;;5075035;28;20166;-69
2023/06/13 09:24:27;;;;;;;3.53;3.07;;;21.50;99.90;;;;;;5075385;28;20416;-71
2023/06/13 09:26:53;;;;;;;5.60;2.97;;;21.40;99.90;;;;;;5075815;28;20522;-69
2023/06/13 09:29:18;;;;;;;8.80;3.40;;;21.20;99.90;;;;;;5074557;28;20503;-70
2023/06/13 09:31:45;;;;;;;3.00;2.80;;;21.10;99.90;;;;;;5074044;28;20661;-69
2023/06/13 09:34:15;;;;;;;3.33;2.60;;;21.40;99.90;;;;;;5075671;28;20257;-69
2023/06/13 09:36:41;;;;;;;4.23;2.93;;;21.80;99.90;;;;;;5075515;28;20494;-70
2023/06/13 09:39:07;;;;;;;6.53;2.80;;;22.20;99.90;;;;;;5074816;28;20403;-69
2023/06/13 09:41:34;;;;;;;9.27;2.70;;;22.40;99.90;;;;;;5074370;28;20492;-71
2023/06/13 09:44:04;;;;;;;5.10;2.43;;;22.50;99.90;;;;;;5075072;28;20224;-70
2023/06/13 09:46:35;;;;;;;3.33;2.63;;;22.30;99.90;;;;;;5075549;28;20411;-70
2023/06/13 09:49:01;;;;;;;4.53;2.20;;;22.30;99.90;;;;;;5075457;28;20439;-69
2023/06/13 09:51:32;;;;;;;11.53;3.90;;;22.80;99.90;;;;;;5074457;28;20442;-70
2023/06/13 09:53:59;;;;;;;3.97;3.33;;;23.20;99.90;;;;;;5075322;28;20412;-70
2023/06/13 09:56:24;;;;;;;3.67;3.37;;;22.90;99.90;;;;;;5075340;28;20467;-69
2023/06/13 09:58:51;;;;;;;3.17;2.90;;;22.90;99.90;;;;;;5068887;28;20463;-70
2023/06/13 10:01:18;;;;;;;4.23;2.97;;;23.40;99.90;;;;;;5067812;28;20166;-71
2023/06/13 10:03:45;;;;;;;4.28;3.05;;;23.90;99.90;;;;;;5072601;28;20426;-69
2023/06/13 10:06:11;;;;;;;3.77;2.70;;;24.30;99.90;;;;;;5075088;28;20193;-71
2023/06/13 10:08:37;;;;;;;4.90;2.10;;;24.30;99.90;;;;;;5074977;28;20407;-72
2023/06/13 10:11:10;;;;;;;5.40;2.30;;;24.30;99.90;;;;;;5071250;28;20982;-71
2023/06/13 10:14:02;;;;;;;4.17;2.80;;;24.10;99.90;;;;;;5066505;28;21003;-71
2023/06/13 10:16:28;;;;;;;5.80;2.83;;;24.10;99.90;;;;;;5074936;28;20429;-70
2023/06/13 10:18:55;;;;;;;5.10;3.30;;;23.90;99.90;;;;;;5074726;28;20403;-70
2023/06/13 10:21:21;;;;;;;4.83;2.43;;;23.70;99.90;;;;;;5073326;28;20488;-70
2023/06/13 10:23:50;;;;;;;9.03;3.00;;;23.50;99.90;;;;;;5074749;28;20416;-70
2023/06/13 10:26:34;;;;;;;7.90;3.03;;;23.50;99.90;;;;;;5074641;28;20897;-70
2023/06/13 10:29:18;;;;;;;12.40;3.33;;;23.40;99.90;;;;;;5074739;28;20393;-70
2023/06/13 10:31:53;;;;;;;4.60;2.57;;;23.20;99.90;;;;;;5073795;28;20405;-70
2023/06/13 10:34:18;;;;;;;5.10;2.90;;;23.50;99.90;;;;;;5074538;28;20829;-70
2023/06/13 10:37:23;;;;;;;5.43;3.00;;;23.90;99.90;;;;;;5074271;28;20483;-70
2023/06/13 10:40:13;;;;;;;5.03;2.97;;;24.40;99.90;;;;;;5072559;28;20172;-70
2023/06/13 10:43:02;;;;;;;2.70;1.90;;;24.80;99.90;;;;;;5071356;28;20416;-72
2023/06/13 10:45:30;;;;;;;8.70;2.63;;;25.20;99.90;;;;;;5072311;28;20805;-71
2023/06/13 10:47:59;;;;;;;3.83;2.60;;;25.40;99.90;;;;;;5074361;28;20401;-71
2023/06/13 10:50:25;;;;;;;4.17;2.73;;;25.60;99.90;;;;;;5073446;28;20407;-70
2023/06/13 10:52:56;;;;;;;2.87;2.60;;;25.50;99.90;;;;;;5074091;28;20425;-71
2023/06/13 10:55:26;;;;;;;11.63;3.80;;;25.40;99.90;;;;;;5072838;28;20229;-71
2023/06/13 10:57:56;;;;;;;4.10;3.23;;;25.10;99.90;;;;;;5072816;28;20452;-72
2023/06/13 11:00:28;;;;;;;2.90;2.70;;;24.90;99.90;;;;;;5073325;28;20404;-69
2023/06/13 11:03:08;;;;;;;4.27;3.87;;;25.00;99.90;;;;;;5073913;28;21138;-69
2023/06/13 11:05:36;;;;;;;3.60;2.80;;;25.00;99.90;;;;;;5073824;28;20962;-70
2023/06/13 11:08:05;;;;;;;2.87;2.67;;;25.30;99.90;;;;;;5073836;28;20455;-71
2023/06/13 11:10:34;;;;;;;5.73;3.30;;;25.80;99.90;;;;;;5072147;28;20439;-70
2023/06/13 11:13:03;;;;;;;6.20;3.10;;;26.30;99.90;;;;;;5073756;28;20425;-70
2023/06/13 11:15:29;;;;;;;4.50;2.70;;;26.00;99.90;;;;;;5073091;28;20405;-71
2023/06/13 11:18:21;;;;;;;7.27;3.10;;;25.60;99.90;;;;;;5073482;28;20448;-70
2023/06/13 11:20:48;;;;;;;17.40;3.23;;;26.30;99.90;;;;;;5055835;28;20618;-70
2023/06/13 11:23:22;;;;;;;6.33;3.23;;;26.50;99.90;;;;;;5073557;28;20417;-71
2023/06/13 11:25:48;;;;;;;4.67;3.07;;;26.90;99.90;;;;;;5072291;28;20425;-70
2023/06/13 11:28:15;;;;;;;4.20;2.73;;;26.90;99.90;;;;;;5073537;28;20412;-70
2023/06/13 11:30:47;;;;;;;5.03;3.00;;;26.60;99.90;;;;;;5072550;28;20504;-70
2023/06/13 11:33:14;;;;;;;2.77;2.57;;;27.20;99.90;;;;;;5072872;28;20431;-71
2023/06/13 11:35:49;;;;;;;4.87;3.43;;;27.70;99.90;;;;;;5073403;28;20961;-70
2023/06/13 11:38:20;;;;;;;8.27;2.63;;;28.20;99.90;;;;;;5073233;28;20451;-70
2023/06/13 11:40:50;;;;;;;9.13;3.07;;;28.10;99.90;;;;;;5072444;28;20408;-70
2023/06/13 11:43:15;;;;;;;5.00;2.77;;;27.60;99.90;;;;;;5073176;28;20980;-71
2023/06/13 11:45:41;;;;;;;12.90;3.10;;;27.50;99.90;;;;;;5072326;28;20495;-71
2023/06/13 11:48:11;;;;;;;3.10;2.83;;;27.90;99.90;;;;;;5073128;28;20162;-71
2023/06/13 11:50:37;;;;;;;6.80;2.50;;;28.50;99.90;;;;;;5072338;28;20171;-72
2023/06/13 11:53:07;;;;;;;5.80;2.67;;;28.20;99.90;;;;;;5071845;28;20448;-72
2023/06/13 11:55:33;;;;;;;6.93;2.20;;;28.40;99.90;;;;;;5073053;28;20265;-70
2023/06/13 11:57:58;;;;;;;5.80;3.37;;;28.70;99.90;;;;;;5073001;28;20444;-70
2023/06/13 12:00:28;;;;;;;5.90;2.40;;;28.50;99.90;;;;;;5072206;28;20396;-70
2023/06/13 12:02:55;;;;;;;3.83;2.50;;;28.00;99.90;;;;;;5072812;28;20190;-70
2023/06/13 12:05:21;;;;;;;4.30;2.90;;;28.20;99.90;;;;;;5073049;28;20408;-72
2023/06/13 12:07:48;;;;;;;4.43;2.73;;;28.30;99.90;;;;;;5073145;28;20423;-70
2023/06/13 12:10:15;;;;;;;3.40;2.50;;;28.30;99.90;;;;;;5070530;28;20436;-70
2023/06/13 12:12:41;;;;;;;3.07;2.73;;;28.60;99.90;;;;;;5072674;28;20397;-70
2023/06/13 12:15:13;;;;;;;4.70;3.00;;;28.50;99.90;;;;;;5072737;28;20416;-68
2023/06/13 12:17:55;;;;;;;12.23;3.37;;;28.00;99.90;;;;;;5070657;28;20460;-68
2023/06/13 12:20:24;;;;;;;4.67;2.77;;;27.70;99.90;;;;;;5068956;28;20432;-67
2023/06/13 12:23:00;;;;;;;7.40;3.07;;;27.90;99.90;;;;;;5072367;28;20425;-65
2023/06/13 12:25:32;;;;;;;4.80;2.80;;;27.70;99.90;;;;;;5072795;28;20408;-65
2023/06/13 12:28:01;;;;;;;8.93;2.93;;;27.90;99.90;;;;;;5072784;28;20401;-67
2023/06/13 12:30:29;;;;;;;4.80;2.60;;;27.80;99.90;;;;;;5071073;28;20428;-66
2023/06/13 12:32:57;;;;;;;4.20;2.77;;;27.40;99.90;;;;;;5071866;28;20451;-68
2023/06/13 12:35:26;;;;;;;2.60;2.30;;;27.30;99.90;;;;;;5076763;28;20411;-66
2023/06/13 12:37:58;;;;;;;3.00;2.13;;;27.40;99.90;;;;;;5076805;28;20535;-67
2023/06/13 12:40:31;;;;;;;4.43;2.70;;;27.20;99.90;;;;;;5075729;28;20407;-67
2023/06/13 12:43:00;;;;;;;2.60;2.20;;;26.90;99.90;;;;;;5076711;28;20409;-67
2023/06/13 12:45:27;;;;;;;2.90;2.43;;;26.50;99.90;;;;;;5075364;28;20446;-69
2023/06/13 12:47:57;;;;;;;2.60;2.20;;;26.30;99.90;;;;;;5076195;28;20467;-67
2023/06/13 12:50:24;;;;;;;8.83;2.40;;;25.90;99.90;;;;;;5073961;28;20415;-67
2023/06/13 12:53:06;;;;;;;4.77;2.40;;;26.10;99.90;;;;;;5076241;28;20419;-68